• Join FlightAware (Why Join?)
  • Login
  • US Flag 
06:35PM EDT


 

Airport Tracker/Info


-or-


 

Live Flight TrackerFlight Track Log ✈ SKW7380 ✈ 02-May-2013 ✈ KSLC - KCDC

Flight Track Log - Related Links

Times and Time Zones

All times are in EDT time to prevent confusion due to time zone crossing. See the SKW7380 flight status page for this flight to view local times or setup timezone preferences in your user account.

Time Position Orientation Groundspeed Altitude Reporting Facility
EDT Latitude Longitude Course Direction KTS MPH feet Rate Location/Type
07:15PM 40.8092 -112.0039 189° South 165 190 5,100  Level Salt Lake Center
07:16PM 40.8278 -112.0656 292° West 207 238 7,100 1,980 Climbing Salt Lake Center
07:17PM 40.8250 -112.1347 267° West 246 283 8,900 1,860 Climbing Salt Lake Center
07:18PM 40.6571 -112.2847 186° South  Level FlightAware Approximate
07:18PM 40.7922 -112.2475 249° West 281 323 10,900  Level Salt Lake Center
07:19PM 40.5399 -112.3034 194° South  Level FlightAware Approximate
07:19PM 40.7278 -112.2775 199° South 310 357 11,100  Level Salt Lake Center
07:20PM 40.4239 -112.3319 189° South  Level FlightAware Approximate
07:20PM 40.6186 -112.3039 190° South 332 382 13,800  Level Salt Lake Center
07:21PM 40.5225 -112.3192 187° South 345 397 15,800 1,740 Climbing Salt Lake Center
07:22PM 40.4239 -112.3500 193° South 363 418 17,400 1,500 Climbing Salt Lake Center
07:23PM 40.3244 -112.3783 192° South 365 420 18,900 960 Climbing Salt Lake Center
07:24PM 40.2194 -112.4078 192° South 386 444 19,500 840 Climbing Salt Lake Center
07:25PM 40.1086 -112.4389 192° South 413 475 20,700 1,260 Climbing Salt Lake Center
07:26PM 39.9969 -112.4694 192° South 411 473 22,200 1,500 Climbing Salt Lake Center
07:27PM 39.8658 -112.5064 192° South 406 467 23,800 1,200 Climbing Salt Lake Center
07:28PM 39.7528 -112.5372 192° South 412 474 24,700 840 Climbing Salt Lake Center
07:29PM 39.6375 -112.5703 192° South 424 488 25,600 600 Climbing Salt Lake Center
07:30PM 39.5206 -112.6017 192° South 429 494 26,000 180 Climbing Salt Lake Center
07:31PM 39.3975 -112.6364 192° South 449 517 26,000  Level Salt Lake Center
07:32PM 39.2531 -112.6767 192° South 461 531 26,000  Level Salt Lake Center
07:33PM 39.1300 -112.7103 192° South 455 524 26,000  Level Salt Lake Center
07:34PM 39.0103 -112.7422 192° South 445 512 26,000  Level Salt Lake Center
07:35PM 38.8908 -112.7744 192° South 440 506 26,000  Level Salt Lake Center
07:36PM 38.7733 -112.8075 192° South 436 502 26,000  Level Salt Lake Center
07:37PM 38.6575 -112.8383 192° South 430 495 26,000 -1,140 Level Salt Lake Center
07:38PM 38.5222 -112.8756 192° South 419 482 23,700 -2,340 Descending Salt Lake Center
07:39PM 38.4131 -112.9047 192° South 408 470 21,300 -2,400 Descending Salt Lake Center
07:40PM 38.3061 -112.9333 192° South 398 458 18,900 -2,040 Descending Salt Lake Center
07:41PM 38.2028 -112.9614 192° South 387 445 17,200 -1,860 Descending Salt Lake Center
07:42PM 38.1011 -112.9889 192° South 382 440 15,100 -1,620 Descending Salt Lake Center
07:43PM 38.0058 -113.0133 191° South 369 425 14,000 -840 Descending Salt Lake Center
07:45PM 37.9272 -113.0336 192° South 320 368 13,500 -1,380 Descending Salt Lake Center
07:46PM 37.8331 -113.0614 193° South 297 342 11,200 -1,500 Descending Salt Lake Center
07:47PM 37.7717 -113.1097 212° Southwest 272 313 10,400 -1,080 Descending Salt Lake Center
07:48PM 37.7203 -113.1592 217° Southwest 249 287 9,100 -1,320 Descending Salt Lake Center